sensor_id;sensor_type;location;lat;lon;timestamp;temperature;humidity
21090;DHT22;10703;51.020;6.128;2023-04-21T00:00:52;6.60;99.90
21090;DHT22;10703;51.020;6.128;2023-04-21T00:03:19;6.50;99.90
21090;DHT22;10703;51.020;6.128;2023-04-21T00:05:51;6.50;99.90
21090;DHT22;10703;51.020;6.128;2023-04-21T00:08:17;6.50;99.90
21090;DHT22;10703;51.020;6.128;2023-04-21T00:10:45;6.50;99.90
21090;DHT22;10703;51.020;6.128;2023-04-21T00:13:12;6.50;99.90
21090;DHT22;10703;51.020;6.128;2023-04-21T00:15:39;6.60;99.90
21090;DHT22;10703;51.020;6.128;2023-04-21T00:18:06;6.60;99.90
21090;DHT22;10703;51.020;6.128;2023-04-21T00:20:32;6.60;99.90
21090;DHT22;10703;51.020;6.128;2023-04-21T00:22:59;6.70;99.90
21090;DHT22;10703;51.020;6.128;2023-04-21T00:25:26;6.60;99.90
21090;DHT22;10703;51.020;6.128;2023-04-21T00:27:52;6.70;99.90
21090;DHT22;10703;51.020;6.128;2023-04-21T00:30:19;6.70;99.90
21090;DHT22;10703;51.020;6.128;2023-04-21T00:32:46;6.70;99.90
21090;DHT22;10703;51.020;6.128;2023-04-21T00:35:12;6.70;99.90
21090;DHT22;10703;51.020;6.128;2023-04-21T00:37:39;6.70;99.90
21090;DHT22;10703;51.020;6.128;2023-04-21T00:40:07;6.80;99.90
21090;DHT22;10703;51.020;6.128;2023-04-21T00:42:34;6.80;99.90
21090;DHT22;10703;51.020;6.128;2023-04-21T00:45:02;6.80;99.90
21090;DHT22;10703;51.020;6.128;2023-04-21T00:47:28;6.80;99.90
21090;DHT22;10703;51.020;6.128;2023-04-21T00:49:57;6.80;99.90
21090;DHT22;10703;51.020;6.128;2023-04-21T00:52:24;6.80;99.90
21090;DHT22;10703;51.020;6.128;2023-04-21T00:54:51;6.80;99.90
21090;DHT22;10703;51.020;6.128;2023-04-21T00:57:19;6.80;99.90
21090;DHT22;10703;51.020;6.128;2023-04-21T00:59:46;6.90;99.90
21090;DHT22;10703;51.020;6.128;2023-04-21T01:02:15;6.80;99.90
21090;DHT22;10703;51.020;6.128;2023-04-21T01:04:43;6.80;99.90
21090;DHT22;10703;51.020;6.128;2023-04-21T01:07:11;6.90;99.90
21090;DHT22;10703;51.020;6.128;2023-04-21T01:09:37;6.90;99.90
21090;DHT22;10703;51.020;6.128;2023-04-21T01:12:09;6.90;99.90
21090;DHT22;10703;51.020;6.128;2023-04-21T01:14:37;6.90;99.90
21090;DHT22;10703;51.020;6.128;2023-04-21T01:17:05;6.90;99.90
21090;DHT22;10703;51.020;6.128;2023-04-21T01:19:36;6.90;99.90
21090;DHT22;10703;51.020;6.128;2023-04-21T01:22:08;6.90;99.90
21090;DHT22;10703;51.020;6.128;2023-04-21T01:24:46;6.90;99.90
21090;DHT22;10703;51.020;6.128;2023-04-21T01:27:17;7.00;99.90
21090;DHT22;10703;51.020;6.128;2023-04-21T01:29:45;7.00;99.90
21090;DHT22;10703;51.020;6.128;2023-04-21T01:32:15;7.00;99.90
21090;DHT22;10703;51.020;6.128;2023-04-21T01:34:43;7.00;99.90
21090;DHT22;10703;51.020;6.128;2023-04-21T01:37:12;6.90;99.90
21090;DHT22;10703;51.020;6.128;2023-04-21T01:39:44;7.00;99.90
21090;DHT22;10703;51.020;6.128;2023-04-21T01:42:12;7.00;99.90
21090;DHT22;10703;51.020;6.128;2023-04-21T01:44:39;7.00;99.90
21090;DHT22;10703;51.020;6.128;2023-04-21T01:47:06;7.00;99.90
21090;DHT22;10703;51.020;6.128;2023-04-21T01:49:32;7.00;99.90
21090;DHT22;10703;51.020;6.128;2023-04-21T01:51:59;7.00;99.90
21090;DHT22;10703;51.020;6.128;2023-04-21T01:54:26;7.00;99.90
21090;DHT22;10703;51.020;6.128;2023-04-21T01:56:52;7.10;99.90
21090;DHT22;10703;51.020;6.128;2023-04-21T01:59:19;7.10;99.90
21090;DHT22;10703;51.020;6.128;2023-04-21T02:01:46;7.10;99.90
21090;DHT22;10703;51.020;6.128;2023-04-21T02:04:13;7.10;99.90
21090;DHT22;10703;51.020;6.128;2023-04-21T02:06:39;7.10;99.90
21090;DHT22;10703;51.020;6.128;2023-04-21T02:09:06;7.20;99.90
21090;DHT22;10703;51.020;6.128;2023-04-21T02:11:33;7.20;99.90
21090;DHT22;10703;51.020;6.128;2023-04-21T02:13:59;7.20;99.90
21090;DHT22;10703;51.020;6.128;2023-04-21T02:16:26;7.20;99.90
21090;DHT22;10703;51.020;6.128;2023-04-21T02:18:54;7.20;99.90
21090;DHT22;10703;51.020;6.128;2023-04-21T02:21:22;7.20;99.90
21090;DHT22;10703;51.020;6.128;2023-04-21T02:23:50;7.10;99.90
21090;DHT22;10703;51.020;6.128;2023-04-21T02:26:17;7.10;99.90
21090;DHT22;10703;51.020;6.128;2023-04-21T02:28:44;7.10;99.90
21090;DHT22;10703;51.020;6.128;2023-04-21T02:31:11;7.20;99.90
21090;DHT22;10703;51.020;6.128;2023-04-21T02:33:37;7.20;99.90
21090;DHT22;10703;51.020;6.128;2023-04-21T02:36:04;7.10;99.90
21090;DHT22;10703;51.020;6.128;2023-04-21T02:38:31;7.10;99.90
21090;DHT22;10703;51.020;6.128;2023-04-21T02:40:57;7.10;99.90
21090;DHT22;10703;51.020;6.128;2023-04-21T02:43:24;7.10;99.90
21090;DHT22;10703;51.020;6.128;2023-04-21T02:45:50;7.10;99.90
21090;DHT22;10703;51.020;6.128;2023-04-21T02:48:17;7.10;99.90
21090;DHT22;10703;51.020;6.128;2023-04-21T02:50:49;7.10;99.90
21090;DHT22;10703;51.020;6.128;2023-04-21T02:53:16;7.10;99.90
21090;DHT22;10703;51.020;6.128;2023-04-21T02:55:42;7.10;99.90
21090;DHT22;10703;51.020;6.128;2023-04-21T02:58:09;7.10;99.90
21090;DHT22;10703;51.020;6.128;2023-04-21T03:00:36;7.10;99.90
21090;DHT22;10703;51.020;6.128;2023-04-21T03:03:03;7.10;99.90
21090;DHT22;10703;51.020;6.128;2023-04-21T03:05:30;7.10;99.90
21090;DHT22;10703;51.020;6.128;2023-04-21T03:07:56;7.00;99.90
21090;DHT22;10703;51.020;6.128;2023-04-21T03:10:23;7.00;99.90
21090;DHT22;10703;51.020;6.128;2023-04-21T03:12:49;7.10;99.90
21090;DHT22;10703;51.020;6.128;2023-04-21T03:15:16;7.10;99.90
21090;DHT22;10703;51.020;6.128;2023-04-21T03:17:43;7.10;99.90
21090;DHT22;10703;51.020;6.128;2023-04-21T03:20:10;7.10;99.90
21090;DHT22;10703;51.020;6.128;2023-04-21T03:22:38;7.10;99.90
21090;DHT22;10703;51.020;6.128;2023-04-21T03:25:05;7.10;99.90
21090;DHT22;10703;51.020;6.128;2023-04-21T03:27:33;7.30;99.90
21090;DHT22;10703;51.020;6.128;2023-04-21T03:30:00;7.00;99.90
21090;DHT22;10703;51.020;6.128;2023-04-21T03:32:26;7.00;99.90
21090;DHT22;10703;51.020;6.128;2023-04-21T03:34:53;7.00;99.90
21090;DHT22;10703;51.020;6.128;2023-04-21T03:37:20;7.00;99.90
21090;DHT22;10703;51.020;6.128;2023-04-21T03:39:46;7.00;99.90
21090;DHT22;10703;51.020;6.128;2023-04-21T03:42:13;7.00;99.90
21090;DHT22;10703;51.020;6.128;2023-04-21T03:44:40;6.90;99.90
21090;DHT22;10703;51.020;6.128;2023-04-21T03:47:06;6.80;99.90
21090;DHT22;10703;51.020;6.128;2023-04-21T03:49:33;6.70;99.90
21090;DHT22;10703;51.020;6.128;2023-04-21T03:52:00;6.60;99.90
21090;DHT22;10703;51.020;6.128;2023-04-21T03:54:27;6.60;99.90
21090;DHT22;10703;51.020;6.128;2023-04-21T03:56:53;6.60;99.90
21090;DHT22;10703;51.020;6.128;2023-04-21T03:59:20;6.60;99.90
21090;DHT22;10703;51.020;6.128;2023-04-21T04:01:47;6.60;99.90
21090;DHT22;10703;51.020;6.128;2023-04-21T04:04:13;6.70;99.90
21090;DHT22;10703;51.020;6.128;2023-04-21T04:06:40;6.70;99.90
21090;DHT22;10703;51.020;6.128;2023-04-21T04:09:07;6.70;99.90
21090;DHT22;10703;51.020;6.128;2023-04-21T04:11:34;6.80;99.90
21090;DHT22;10703;51.020;6.128;2023-04-21T04:14:00;6.90;99.90
21090;DHT22;10703;51.020;6.128;2023-04-21T04:16:27;6.90;99.90
21090;DHT22;10703;51.020;6.128;2023-04-21T04:18:54;6.90;99.90
21090;DHT22;10703;51.020;6.128;2023-04-21T04:21:21;6.80;99.90
21090;DHT22;10703;51.020;6.128;2023-04-21T04:23:49;6.70;99.90
21090;DHT22;10703;51.020;6.128;2023-04-21T04:26:17;6.50;99.90
21090;DHT22;10703;51.020;6.128;2023-04-21T04:28:44;6.40;99.90
21090;DHT22;10703;51.020;6.128;2023-04-21T04:31:10;6.40;99.90
21090;DHT22;10703;51.020;6.128;2023-04-21T04:33:42;6.20;99.90
21090;DHT22;10703;51.020;6.128;2023-04-21T04:36:09;6.10;99.90
21090;DHT22;10703;51.020;6.128;2023-04-21T04:38:37;6.00;99.90
21090;DHT22;10703;51.020;6.128;2023-04-21T04:41:04;5.90;99.90
21090;DHT22;10703;51.020;6.128;2023-04-21T04:43:31;5.90;99.90
21090;DHT22;10703;51.020;6.128;2023-04-21T04:46:07;5.80;99.90
21090;DHT22;10703;51.020;6.128;2023-04-21T04:48:38;5.80;99.90
21090;DHT22;10703;51.020;6.128;2023-04-21T04:51:05;5.70;99.90
21090;DHT22;10703;51.020;6.128;2023-04-21T04:53:32;5.70;99.90
21090;DHT22;10703;51.020;6.128;2023-04-21T04:55:58;5.70;99.90
21090;DHT22;10703;51.020;6.128;2023-04-21T04:58:25;5.70;99.90
21090;DHT22;10703;51.020;6.128;2023-04-21T05:00:51;5.70;99.90
21090;DHT22;10703;51.020;6.128;2023-04-21T05:03:18;5.70;99.90
21090;DHT22;10703;51.020;6.128;2023-04-21T05:05:45;5.70;99.90
21090;DHT22;10703;51.020;6.128;2023-04-21T05:08:11;5.70;99.90
21090;DHT22;10703;51.020;6.128;2023-04-21T05:10:39;5.70;99.90
21090;DHT22;10703;51.020;6.128;2023-04-21T05:13:06;5.80;99.90
21090;DHT22;10703;51.020;6.128;2023-04-21T05:15:32;5.80;99.90
21090;DHT22;10703;51.020;6.128;2023-04-21T05:17:59;5.80;99.90
21090;DHT22;10703;51.020;6.128;2023-04-21T05:20:26;5.90;99.90
21090;DHT22;10703;51.020;6.128;2023-04-21T05:22:52;5.90;99.90
21090;DHT22;10703;51.020;6.128;2023-04-21T05:25:19;5.90;99.90
21090;DHT22;10703;51.020;6.128;2023-04-21T05:27:45;5.90;99.90
21090;DHT22;10703;51.020;6.128;2023-04-21T05:30:12;5.90;99.90
21090;DHT22;10703;51.020;6.128;2023-04-21T05:32:38;5.90;99.90
21090;DHT22;10703;51.020;6.128;2023-04-21T05:35:05;6.00;99.90
21090;DHT22;10703;51.020;6.128;2023-04-21T05:37:32;6.00;99.90
21090;DHT22;10703;51.020;6.128;2023-04-21T05:39:58;6.10;99.90
21090;DHT22;10703;51.020;6.128;2023-04-21T05:42:26;6.20;99.90
21090;DHT22;10703;51.020;6.128;2023-04-21T05:44:52;6.30;99.90
21090;DHT22;10703;51.020;6.128;2023-04-21T05:47:19;6.40;99.90
21090;DHT22;10703;51.020;6.128;2023-04-21T05:49:46;6.50;99.90
21090;DHT22;10703;51.020;6.128;2023-04-21T05:52:15;6.50;99.90
21090;DHT22;10703;51.020;6.128;2023-04-21T05:54:43;6.60;99.90
21090;DHT22;10703;51.020;6.128;2023-04-21T05:57:09;6.70;99.90
21090;DHT22;10703;51.020;6.128;2023-04-21T05:59:36;6.70;99.90
21090;DHT22;10703;51.020;6.128;2023-04-21T06:02:03;6.90;99.90
21090;DHT22;10703;51.020;6.128;2023-04-21T06:04:29;7.00;99.90
21090;DHT22;10703;51.020;6.128;2023-04-21T06:06:56;7.10;99.90
21090;DHT22;10703;51.020;6.128;2023-04-21T06:09:23;7.20;99.90
21090;DHT22;10703;51.020;6.128;2023-04-21T06:11:49;7.30;99.90
21090;DHT22;10703;51.020;6.128;2023-04-21T06:14:16;7.30;99.90
21090;DHT22;10703;51.020;6.128;2023-04-21T06:16:43;7.50;99.90
21090;DHT22;10703;51.020;6.128;2023-04-21T06:19:10;7.50;99.90
21090;DHT22;10703;51.020;6.128;2023-04-21T06:21:36;7.40;99.90
21090;DHT22;10703;51.020;6.128;2023-04-21T06:24:03;7.60;99.90
21090;DHT22;10703;51.020;6.128;2023-04-21T06:26:29;7.80;99.90
21090;DHT22;10703;51.020;6.128;2023-04-21T06:28:56;7.90;99.90
21090;DHT22;10703;51.020;6.128;2023-04-21T06:31:22;8.00;99.90
21090;DHT22;10703;51.020;6.128;2023-04-21T06:33:49;8.10;99.90
21090;DHT22;10703;51.020;6.128;2023-04-21T06:36:16;8.00;99.90
21090;DHT22;10703;51.020;6.128;2023-04-21T06:38:43;8.00;99.90
21090;DHT22;10703;51.020;6.128;2023-04-21T06:41:10;7.90;99.90
21090;DHT22;10703;51.020;6.128;2023-04-21T06:43:36;7.90;99.90
21090;DHT22;10703;51.020;6.128;2023-04-21T06:46:03;8.10;99.90
21090;DHT22;10703;51.020;6.128;2023-04-21T06:48:30;8.30;99.90
21090;DHT22;10703;51.020;6.128;2023-04-21T06:50:57;8.30;99.90
21090;DHT22;10703;51.020;6.128;2023-04-21T06:53:23;8.50;99.90
21090;DHT22;10703;51.020;6.128;2023-04-21T06:55:51;8.70;99.90
21090;DHT22;10703;51.020;6.128;2023-04-21T06:58:18;8.70;99.90
21090;DHT22;10703;51.020;6.128;2023-04-21T07:00:47;8.80;99.90
21090;DHT22;10703;51.020;6.128;2023-04-21T07:03:13;9.30;99.90
21090;DHT22;10703;51.020;6.128;2023-04-21T07:05:40;9.70;99.90
21090;DHT22;10703;51.020;6.128;2023-04-21T07:08:06;10.70;99.90
21090;DHT22;10703;51.020;6.128;2023-04-21T07:10:33;11.00;99.90
21090;DHT22;10703;51.020;6.128;2023-04-21T07:13:00;10.90;99.90
21090;DHT22;10703;51.020;6.128;2023-04-21T07:15:26;11.10;99.90
21090;DHT22;10703;51.020;6.128;2023-04-21T07:17:53;11.10;99.90
21090;DHT22;10703;51.020;6.128;2023-04-21T07:20:20;12.30;99.90
21090;DHT22;10703;51.020;6.128;2023-04-21T07:22:46;12.10;99.90
21090;DHT22;10703;51.020;6.128;2023-04-21T07:25:13;11.50;99.90
21090;DHT22;10703;51.020;6.128;2023-04-21T07:27:39;12.80;99.90
21090;DHT22;10703;51.020;6.128;2023-04-21T07:30:06;13.50;99.90
21090;DHT22;10703;51.020;6.128;2023-04-21T07:32:33;12.80;99.90
21090;DHT22;10703;51.020;6.128;2023-04-21T07:35:00;12.10;99.90
21090;DHT22;10703;51.020;6.128;2023-04-21T07:37:28;13.70;99.90
21090;DHT22;10703;51.020;6.128;2023-04-21T07:39:54;13.40;99.90
21090;DHT22;10703;51.020;6.128;2023-04-21T07:42:21;13.10;99.90
21090;DHT22;10703;51.020;6.128;2023-04-21T07:44:48;13.80;99.90
21090;DHT22;10703;51.020;6.128;2023-04-21T07:47:14;14.00;99.90
21090;DHT22;10703;51.020;6.128;2023-04-21T07:49:41;14.20;99.90
21090;DHT22;10703;51.020;6.128;2023-04-21T07:52:08;14.20;99.90
21090;DHT22;10703;51.020;6.128;2023-04-21T07:54:34;14.20;99.90
21090;DHT22;10703;51.020;6.128;2023-04-21T07:57:01;13.10;99.90
21090;DHT22;10703;51.020;6.128;2023-04-21T07:59:28;13.50;99.90
21090;DHT22;10703;51.020;6.128;2023-04-21T08:01:55;13.60;99.90
21090;DHT22;10703;51.020;6.128;2023-04-21T08:04:21;13.60;99.90
21090;DHT22;10703;51.020;6.128;2023-04-21T08:06:49;13.70;99.90
21090;DHT22;10703;51.020;6.128;2023-04-21T08:09:16;14.30;99.90
21090;DHT22;10703;51.020;6.128;2023-04-21T08:11:43;14.20;99.90
21090;DHT22;10703;51.020;6.128;2023-04-21T08:14:10;13.80;99.90
21090;DHT22;10703;51.020;6.128;2023-04-21T08:16:37;13.70;99.90
21090;DHT22;10703;51.020;6.128;2023-04-21T08:19:06;14.30;99.90
21090;DHT22;10703;51.020;6.128;2023-04-21T08:21:33;13.60;99.90
21090;DHT22;10703;51.020;6.128;2023-04-21T08:24:00;13.60;99.90
21090;DHT22;10703;51.020;6.128;2023-04-21T08:26:27;13.60;99.90
21090;DHT22;10703;51.020;6.128;2023-04-21T08:28:55;14.30;99.90
21090;DHT22;10703;51.020;6.128;2023-04-21T08:31:22;15.40;99.90
21090;DHT22;10703;51.020;6.128;2023-04-21T08:33:52;14.80;99.90
21090;DHT22;10703;51.020;6.128;2023-04-21T08:36:28;14.50;99.90
21090;DHT22;10703;51.020;6.128;2023-04-21T08:38:56;14.60;99.90
21090;DHT22;10703;51.020;6.128;2023-04-21T08:41:24;15.40;99.90
21090;DHT22;10703;51.020;6.128;2023-04-21T08:43:50;15.80;99.90
21090;DHT22;10703;51.020;6.128;2023-04-21T08:46:17;16.00;99.90
21090;DHT22;10703;51.020;6.128;2023-04-21T08:48:46;16.00;99.90
21090;DHT22;10703;51.020;6.128;2023-04-21T08:51:17;16.50;99.90
21090;DHT22;10703;51.020;6.128;2023-04-21T08:53:44;15.90;99.90
21090;DHT22;10703;51.020;6.128;2023-04-21T08:56:11;16.90;99.90
21090;DHT22;10703;51.020;6.128;2023-04-21T08:58:38;17.30;99.90
21090;DHT22;10703;51.020;6.128;2023-04-21T09:01:05;16.60;99.90
21090;DHT22;10703;51.020;6.128;2023-04-21T09:03:31;16.80;99.90
21090;DHT22;10703;51.020;6.128;2023-04-21T09:06:04;16.60;99.90
21090;DHT22;10703;51.020;6.128;2023-04-21T09:08:32;16.10;99.90
21090;DHT22;10703;51.020;6.128;2023-04-21T09:10:59;15.90;99.90
21090;DHT22;10703;51.020;6.128;2023-04-21T09:13:31;16.50;99.90
21090;DHT22;10703;51.020;6.128;2023-04-21T09:15:59;17.30;99.90
21090;DHT22;10703;51.020;6.128;2023-04-21T09:18:27;16.20;99.90
21090;DHT22;10703;51.020;6.128;2023-04-21T09:21:08;15.40;99.90
21090;DHT22;10703;51.020;6.128;2023-04-21T09:23:49;15.60;99.90
21090;DHT22;10703;51.020;6.128;2023-04-21T09:26:17;15.40;99.90
21090;DHT22;10703;51.020;6.128;2023-04-21T09:28:46;15.70;99.90
21090;DHT22;10703;51.020;6.128;2023-04-21T09:31:23;16.50;99.90
21090;DHT22;10703;51.020;6.128;2023-04-21T09:33:52;17.20;99.90
21090;DHT22;10703;51.020;6.128;2023-04-21T09:36:27;16.40;99.90
21090;DHT22;10703;51.020;6.128;2023-04-21T09:41:40;16.50;99.90
21090;DHT22;10703;51.020;6.128;2023-04-21T09:44:08;16.60;99.90
21090;DHT22;10703;51.020;6.128;2023-04-21T09:46:35;17.50;99.90
21090;DHT22;10703;51.020;6.128;2023-04-21T09:49:03;17.00;99.90
21090;DHT22;10703;51.020;6.128;2023-04-21T09:51:31;16.90;99.90
21090;DHT22;10703;51.020;6.128;2023-04-21T09:54:19;16.40;99.90
21090;DHT22;10703;51.020;6.128;2023-04-21T09:57:02;16.30;99.90
21090;DHT22;10703;51.020;6.128;2023-04-21T09:59:35;16.60;99.90
21090;DHT22;10703;51.020;6.128;2023-04-21T10:02:06;16.80;99.90
21090;DHT22;10703;51.020;6.128;2023-04-21T10:04:35;17.00;99.90
21090;DHT22;10703;51.020;6.128;2023-04-21T10:07:02;16.90;99.90
21090;DHT22;10703;51.020;6.128;2023-04-21T10:09:34;17.60;99.90
21090;DHT22;10703;51.020;6.128;2023-04-21T10:12:03;17.10;99.90
21090;DHT22;10703;51.020;6.128;2023-04-21T10:14:33;17.00;99.90
21090;DHT22;10703;51.020;6.128;2023-04-21T10:17:04;17.80;99.90
21090;DHT22;10703;51.020;6.128;2023-04-21T10:19:31;18.80;99.90
21090;DHT22;10703;51.020;6.128;2023-04-21T10:22:08;19.00;99.90
21090;DHT22;10703;51.020;6.128;2023-04-21T10:24:42;18.60;99.90
21090;DHT22;10703;51.020;6.128;2023-04-21T10:27:11;18.70;99.90
21090;DHT22;10703;51.020;6.128;2023-04-21T10:29:38;18.80;99.90
21090;DHT22;10703;51.020;6.128;2023-04-21T10:32:41;18.60;99.70
21090;DHT22;10703;51.020;6.128;2023-04-21T10:35:13;19.10;99.90
21090;DHT22;10703;51.020;6.128;2023-04-21T10:37:42;19.20;99.30
21090;DHT22;10703;51.020;6.128;2023-04-21T10:40:33;19.50;99.40
21090;DHT22;10703;51.020;6.128;2023-04-21T10:43:41;19.40;99.10
21090;DHT22;10703;51.020;6.128;2023-04-21T10:46:35;19.00;98.90
21090;DHT22;10703;51.020;6.128;2023-04-21T10:49:09;18.90;97.80
21090;DHT22;10703;51.020;6.128;2023-04-21T10:54:28;20.30;96.50
21090;DHT22;10703;51.020;6.128;2023-04-21T10:56:57;20.60;97.10
21090;DHT22;10703;51.020;6.128;2023-04-21T10:59:25;20.10;97.20
21090;DHT22;10703;51.020;6.128;2023-04-21T11:01:52;19.70;98.40
21090;DHT22;10703;51.020;6.128;2023-04-21T11:04:20;21.00;96.20
21090;DHT22;10703;51.020;6.128;2023-04-21T11:07:13;20.10;96.70
21090;DHT22;10703;51.020;6.128;2023-04-21T11:09:40;20.40;96.00
21090;DHT22;10703;51.020;6.128;2023-04-21T11:12:13;20.80;95.00
21090;DHT22;10703;51.020;6.128;2023-04-21T11:14:41;20.70;95.70
21090;DHT22;10703;51.020;6.128;2023-04-21T11:17:13;20.40;96.30
21090;DHT22;10703;51.020;6.128;2023-04-21T11:19:41;20.10;96.90
21090;DHT22;10703;51.020;6.128;2023-04-21T11:22:07;20.10;97.00
21090;DHT22;10703;51.020;6.128;2023-04-21T11:24:34;20.20;96.50
21090;DHT22;10703;51.020;6.128;2023-04-21T11:27:01;19.80;96.40
21090;DHT22;10703;51.020;6.128;2023-04-21T11:29:28;19.40;96.80
21090;DHT22;10703;51.020;6.128;2023-04-21T11:31:55;19.30;96.40
21090;DHT22;10703;51.020;6.128;2023-04-21T11:34:22;19.50;96.40
21090;DHT22;10703;51.020;6.128;2023-04-21T11:36:50;20.40;96.40
21090;DHT22;10703;51.020;6.128;2023-04-21T11:39:18;21.00;95.60
21090;DHT22;10703;51.020;6.128;2023-04-21T11:41:49;19.90;94.90
21090;DHT22;10703;51.020;6.128;2023-04-21T11:44:31;19.90;94.50
21090;DHT22;10703;51.020;6.128;2023-04-21T11:46:58;20.20;94.90
21090;DHT22;10703;51.020;6.128;2023-04-21T11:49:26;19.90;94.20
21090;DHT22;10703;51.020;6.128;2023-04-21T11:51:55;20.80;95.40
21090;DHT22;10703;51.020;6.128;2023-04-21T11:54:22;20.40;94.90
21090;DHT22;10703;51.020;6.128;2023-04-21T11:56:50;20.60;94.10
21090;DHT22;10703;51.020;6.128;2023-04-21T11:59:21;20.40;94.50
21090;DHT22;10703;51.020;6.128;2023-04-21T12:01:53;20.70;94.20
21090;DHT22;10703;51.020;6.128;2023-04-21T12:04:24;21.10;93.10
21090;DHT22;10703;51.020;6.128;2023-04-21T12:07:01;21.60;93.90
21090;DHT22;10703;51.020;6.128;2023-04-21T12:09:29;20.40;94.20
21090;DHT22;10703;51.020;6.128;2023-04-21T12:11:56;20.00;94.00
21090;DHT22;10703;51.020;6.128;2023-04-21T12:14:24;19.90;94.40
21090;DHT22;10703;51.020;6.128;2023-04-21T12:16:55;20.50;93.60
21090;DHT22;10703;51.020;6.128;2023-04-21T12:19:48;21.10;93.70
21090;DHT22;10703;51.020;6.128;2023-04-21T12:22:16;21.40;93.10
21090;DHT22;10703;51.020;6.128;2023-04-21T12:24:44;21.80;93.30
21090;DHT22;10703;51.020;6.128;2023-04-21T12:27:12;21.70;92.40
21090;DHT22;10703;51.020;6.128;2023-04-21T12:29:39;21.10;93.10
21090;DHT22;10703;51.020;6.128;2023-04-21T12:32:07;21.30;93.80
21090;DHT22;10703;51.020;6.128;2023-04-21T12:34:35;21.80;92.00
21090;DHT22;10703;51.020;6.128;2023-04-21T12:37:02;21.20;92.50
21090;DHT22;10703;51.020;6.128;2023-04-21T12:39:29;22.00;92.40
21090;DHT22;10703;51.020;6.128;2023-04-21T12:41:56;22.90;91.90
21090;DHT22;10703;51.020;6.128;2023-04-21T12:44:23;24.30;90.80
21090;DHT22;10703;51.020;6.128;2023-04-21T12:46:50;23.40;91.50
21090;DHT22;10703;51.020;6.128;2023-04-21T12:49:17;23.90;92.30
21090;DHT22;10703;51.020;6.128;2023-04-21T12:51:44;23.70;90.00
21090;DHT22;10703;51.020;6.128;2023-04-21T12:54:11;24.00;89.40
21090;DHT22;10703;51.020;6.128;2023-04-21T12:56:38;24.20;90.90
21090;DHT22;10703;51.020;6.128;2023-04-21T12:59:06;23.50;90.40
21090;DHT22;10703;51.020;6.128;2023-04-21T13:01:32;23.10;90.50
21090;DHT22;10703;51.020;6.128;2023-04-21T13:03:59;24.80;88.40
21090;DHT22;10703;51.020;6.128;2023-04-21T13:06:26;24.50;88.30
21090;DHT22;10703;51.020;6.128;2023-04-21T13:08:53;23.50;88.80
21090;DHT22;10703;51.020;6.128;2023-04-21T13:11:20;22.50;89.90
21090;DHT22;10703;51.020;6.128;2023-04-21T13:13:47;22.30;90.70
21090;DHT22;10703;51.020;6.128;2023-04-21T13:16:13;22.70;90.50
21090;DHT22;10703;51.020;6.128;2023-04-21T13:18:40;22.30;90.50
21090;DHT22;10703;51.020;6.128;2023-04-21T13:21:07;22.50;89.60
21090;DHT22;10703;51.020;6.128;2023-04-21T13:23:34;23.10;90.20
21090;DHT22;10703;51.020;6.128;2023-04-21T13:26:00;24.10;87.50
21090;DHT22;10703;51.020;6.128;2023-04-21T13:28:27;23.60;88.30
21090;DHT22;10703;51.020;6.128;2023-04-21T13:30:54;23.20;87.80
21090;DHT22;10703;51.020;6.128;2023-04-21T13:33:21;23.40;87.40
21090;DHT22;10703;51.020;6.128;2023-04-21T13:35:48;24.10;86.70
21090;DHT22;10703;51.020;6.128;2023-04-21T13:38:15;23.30;86.40
21090;DHT22;10703;51.020;6.128;2023-04-21T13:40:41;22.90;86.20
21090;DHT22;10703;51.020;6.128;2023-04-21T13:43:08;23.60;85.70
21090;DHT22;10703;51.020;6.128;2023-04-21T13:45:35;23.40;87.90
21090;DHT22;10703;51.020;6.128;2023-04-21T13:48:01;23.30;84.90
21090;DHT22;10703;51.020;6.128;2023-04-21T13:50:29;23.30;86.90
21090;DHT22;10703;51.020;6.128;2023-04-21T13:52:55;23.00;86.00
21090;DHT22;10703;51.020;6.128;2023-04-21T13:55:22;24.00;86.40
21090;DHT22;10703;51.020;6.128;2023-04-21T13:57:49;23.20;86.10
21090;DHT22;10703;51.020;6.128;2023-04-21T14:00:16;22.90;86.60
21090;DHT22;10703;51.020;6.128;2023-04-21T14:02:42;22.90;85.60
21090;DHT22;10703;51.020;6.128;2023-04-21T14:05:10;24.20;84.90
21090;DHT22;10703;51.020;6.128;2023-04-21T14:07:36;24.40;83.40
21090;DHT22;10703;51.020;6.128;2023-04-21T14:10:03;25.30;84.80
21090;DHT22;10703;51.020;6.128;2023-04-21T14:12:30;25.00;82.40
21090;DHT22;10703;51.020;6.128;2023-04-21T14:14:57;25.10;83.60
21090;DHT22;10703;51.020;6.128;2023-04-21T14:17:23;24.80;80.80
21090;DHT22;10703;51.020;6.128;2023-04-21T14:19:50;24.80;79.90
21090;DHT22;10703;51.020;6.128;2023-04-21T14:22:20;24.10;80.60
21090;DHT22;10703;51.020;6.128;2023-04-21T14:24:47;23.60;80.60
21090;DHT22;10703;51.020;6.128;2023-04-21T14:27:13;23.50;82.10
21090;DHT22;10703;51.020;6.128;2023-04-21T14:29:40;24.70;83.50
21090;DHT22;10703;51.020;6.128;2023-04-21T14:32:07;24.50;79.60
21090;DHT22;10703;51.020;6.128;2023-04-21T14:34:33;24.50;79.00
21090;DHT22;10703;51.020;6.128;2023-04-21T14:37:00;24.20;78.70
21090;DHT22;10703;51.020;6.128;2023-04-21T14:39:26;24.10;79.90
21090;DHT22;10703;51.020;6.128;2023-04-21T14:41:53;23.90;79.80
21090;DHT22;10703;51.020;6.128;2023-04-21T14:44:20;24.30;79.80
21090;DHT22;10703;51.020;6.128;2023-04-21T14:46:47;23.50;79.50
21090;DHT22;10703;51.020;6.128;2023-04-21T14:49:31;23.40;80.50
21090;DHT22;10703;51.020;6.128;2023-04-21T14:51:58;23.50;80.30
21090;DHT22;10703;51.020;6.128;2023-04-21T14:54:25;24.10;80.00
21090;DHT22;10703;51.020;6.128;2023-04-21T14:56:51;24.30;80.50
21090;DHT22;10703;51.020;6.128;2023-04-21T14:59:32;24.00;80.00
21090;DHT22;10703;51.020;6.128;2023-04-21T15:01:59;24.10;79.60
21090;DHT22;10703;51.020;6.128;2023-04-21T15:04:26;22.80;82.40
21090;DHT22;10703;51.020;6.128;2023-04-21T15:06:53;22.10;85.10
21090;DHT22;10703;51.020;6.128;2023-04-21T15:09:20;21.10;85.50
21090;DHT22;10703;51.020;6.128;2023-04-21T15:11:47;20.60;86.60
21090;DHT22;10703;51.020;6.128;2023-04-21T15:14:13;20.20;87.90
21090;DHT22;10703;51.020;6.128;2023-04-21T15:16:40;19.60;89.00
21090;DHT22;10703;51.020;6.128;2023-04-21T15:19:06;19.00;90.10
21090;DHT22;10703;51.020;6.128;2023-04-21T15:21:33;18.80;90.40
21090;DHT22;10703;51.020;6.128;2023-04-21T15:24:00;18.80;90.60
21090;DHT22;10703;51.020;6.128;2023-04-21T15:26:26;18.70;91.60
21090;DHT22;10703;51.020;6.128;2023-04-21T15:28:55;19.00;92.00
21090;DHT22;10703;51.020;6.128;2023-04-21T15:31:23;19.20;92.60
21090;DHT22;10703;51.020;6.128;2023-04-21T15:33:49;19.10;92.90
21090;DHT22;10703;51.020;6.128;2023-04-21T15:36:16;19.00;93.80
21090;DHT22;10703;51.020;6.128;2023-04-21T15:38:43;18.70;93.00
21090;DHT22;10703;51.020;6.128;2023-04-21T15:41:10;18.60;93.60
21090;DHT22;10703;51.020;6.128;2023-04-21T15:43:37;18.50;93.70
21090;DHT22;10703;51.020;6.128;2023-04-21T15:46:03;18.40;94.00
21090;DHT22;10703;51.020;6.128;2023-04-21T15:48:39;18.40;93.70